Skip to main content.
Our real time weather data display below is updated continuously via our 24/7 live data feed.
 TIME   TEMPERATURE   WINDSPEED   DIRECTION   HUMIDITY   BAROMETER   RAINFALL 
18:25 13.0°C (55.4°F) 24.1 kmh (15.0 mph) SSE 81% 1032.8hPa (30.50 inHg) 0.5mm (0.02 in.)
17:25 14.0°C (57.2 °F) 29.6 kmh (18.4 mph) S 82% 1032.8hPa (30.50 inHg) 0.5mm (0.02 in.)
16:25 14.0°C (57.2 °F) 31.5 kmh (19.6 mph) S 82% 1032.8hPa (30.50 inHg) 0.5mm (0.02 in.)
15:25 15.0°C (59.0 °F) 37.0 kmh (23.0 mph) SSE 76% 1032.8hPa (30.50 inHg) 0.5mm (0.02 in.)
14:25 15.0°C (59.0 °F) 37.0 kmh (23.0 mph) SSE 76% 1032.8hPa (30.50 inHg) 0.5mm (0.02 in.)
13:25 15.0°C (59.0 °F) 37.0 kmh (23.0 mph) SSE 82% 1033.9hPa (30.53 inHg) 0.5mm (0.02 in.)
12:25 15.0°C (59.0 °F) 37.0 kmh (23.0 mph) SSE 82% 1033.9hPa (30.53 inHg) 0.5mm (0.02 in.)
11:25 15.0°C (59.0 °F) 33.3 kmh (20.7 mph) S 82% 1034.9hPa (30.56 inHg) 0.5mm (0.02 in.)
10:25 15.0°C (59.0 °F) 35.2 kmh (21.9 mph) SSE 82% 1033.9hPa (30.53 inHg) 0.5mm (0.02 in.)
9:25 15.0°C (59.0 °F) 33.3 kmh (20.7 mph) SSE 82% 1033.9hPa (30.53 inHg) 0.5mm (0.02 in.)
8:25 15.0°C (59.0 °F) 31.5 kmh (19.6 mph) S 82% 1033.9hPa (30.53 inHg) 0.0mm (0.00 in.)
7:25 15.0°C (59.0 °F) 31.5 kmh (19.6 mph) SSE 87% 1032.8hPa (30.50 inHg) 0.0mm (0.00 in.)
6:25 14.0°C (57.2 °F) 29.6 kmh (18.4 mph) SSE 93% 1031.8hPa (30.47 inHg) 0.0mm (0.00 in.)
5:25 14.0°C (57.2 °F) 37.0 kmh (23.0 mph) SSE 93% 1031.8hPa (30.47 inHg) 0.0mm (0.00 in.)
4:25 14.0°C (57.2 °F) 24.1 kmh (15.0 mph) SE 93% 1031.8hPa (30.47 inHg) 0.0mm (0.00 in.)
3:25 14.0°C (57.2 °F) 24.1 kmh (15.0 mph) SE 93% 1031.8hPa (30.47 inHg) 0.0mm (0.00 in.)
2:25 14.0°C (57.2 °F) 25.9 kmh (16.1 mph) SE 87% 1031.8hPa (30.47 inHg) 0.0mm (0.00 in.)
1:25 14.0°C (57.2 °F) 24.1 kmh (15.0 mph) SE 82% 1031.8hPa (30.47 inHg) 0.0mm (0.00 in.)
0:25 13.0°C (55.4 °F) 20.4 kmh (12.7 mph) SE 87% 1031.8hPa (30.47 inHg) 0.0mm (0.00 in.)
23:25 13.0°C (55.4 °F) 22.2 kmh (13.8 mph) SE 81% 1031.8hPa (30.47 inHg) 0.0mm (0.00 in.)
22:25 13.0°C (55.4 °F) 18.5 kmh (11.5 mph) SE 87% 1031.8hPa (30.47 inHg) 0.0mm (0.00 in.)
21:25 13.0°C (55.4 °F) 24.1 kmh (15.0 mph) SE 81% 1031.2hPa (30.45 inHg) 0.0mm (0.00 in.)
20:25 14.0°C (57.2 °F) 29.6 kmh (18.4 mph) SE 82% 1030.1hPa (30.42 inHg) 0.0mm (0.00 in.)
19:25 14.0°C (57.2 °F) 25.9 kmh (16.1 mph) SE 82% 1030.1hPa (30.42 inHg) 0.0mm (0.00 in.)